Terminal Aerodrome Forecast
Issued by NWS

Home | Current Version | Previous Version | Text Only | Print | Product List | Glossary On
Versions: 1 2 3 4 5 6 7 8 9 10 11 12 13 14 15 16
000
FTUS43 KICT 180731 AAA
TAFHUT
TAF AMD
KHUT 180731Z 1808/1906 34026G34KT P6SM BKN015 OVC090
     FM181400 34026G35KT P6SM SCT030
     FM190000 32010KT P6SM SKC=

USA.gov is the U.S. government's official web portal to all federal, state and local government web resources and services.